createdAt,value
2023-04-15T00:00:29.000Z,0
2023-04-15T00:01:30.000Z,0
2023-04-15T00:02:31.000Z,0
2023-04-15T00:03:32.000Z,0
2023-04-15T00:04:33.000Z,0
2023-04-15T00:05:33.000Z,0
2023-04-15T00:06:34.000Z,0
2023-04-15T00:07:35.000Z,0
2023-04-15T00:08:36.000Z,0
2023-04-15T00:09:37.000Z,0
2023-04-15T00:10:38.000Z,0
2023-04-15T00:11:38.000Z,0
2023-04-15T00:12:39.000Z,0
2023-04-15T00:13:40.000Z,0
2023-04-15T00:14:41.000Z,0
2023-04-15T00:15:42.000Z,0
2023-04-15T00:16:43.000Z,0
2023-04-15T00:17:43.000Z,0
2023-04-15T00:18:44.000Z,0
2023-04-15T00:19:45.000Z,0
2023-04-15T00:20:46.000Z,0
2023-04-15T00:21:47.000Z,0
2023-04-15T00:22:48.000Z,0
2023-04-15T00:23:48.000Z,0
2023-04-15T00:24:49.000Z,0
2023-04-15T00:25:50.000Z,0
2023-04-15T00:26:51.000Z,0
2023-04-15T00:27:52.000Z,0
2023-04-15T00:28:53.000Z,0
2023-04-15T00:29:54.000Z,0
2023-04-15T00:30:55.000Z,0
2023-04-15T00:31:55.000Z,0
2023-04-15T00:32:56.000Z,0
2023-04-15T00:33:57.000Z,0
2023-04-15T00:34:58.000Z,0
2023-04-15T00:35:59.000Z,0
2023-04-15T00:37:00.000Z,0
2023-04-15T00:38:00.000Z,0
2023-04-15T00:39:01.000Z,0
2023-04-15T00:40:02.000Z,0
2023-04-15T00:41:03.000Z,0
2023-04-15T00:42:04.000Z,0
2023-04-15T00:43:05.000Z,0
2023-04-15T00:44:06.000Z,0
2023-04-15T00:45:07.000Z,0
2023-04-15T00:46:07.000Z,0
2023-04-15T00:47:08.000Z,0
2023-04-15T00:48:09.000Z,0
2023-04-15T00:49:10.000Z,0
2023-04-15T00:50:11.000Z,0
2023-04-15T00:51:12.000Z,0
2023-04-15T00:52:13.000Z,0
2023-04-15T00:53:14.000Z,0
2023-04-15T00:54:15.000Z,0
2023-04-15T00:55:15.000Z,0
2023-04-15T00:56:16.000Z,0
2023-04-15T00:57:17.000Z,0
2023-04-15T00:58:18.000Z,0
2023-04-15T00:59:19.000Z,0
2023-04-15T01:00:20.000Z,0
2023-04-15T01:01:21.000Z,0
2023-04-15T01:02:22.000Z,0
2023-04-15T01:03:22.000Z,0
2023-04-15T01:04:23.000Z,0
2023-04-15T01:05:24.000Z,0
2023-04-15T01:06:25.000Z,0
2023-04-15T01:07:26.000Z,0
2023-04-15T01:08:27.000Z,0
2023-04-15T01:09:28.000Z,0
2023-04-15T01:10:29.000Z,0
2023-04-15T01:11:30.000Z,0
2023-04-15T01:12:31.000Z,0
2023-04-15T01:13:31.000Z,0
2023-04-15T01:14:32.000Z,0
2023-04-15T01:15:33.000Z,0
2023-04-15T01:16:34.000Z,0
2023-04-15T01:17:35.000Z,0
2023-04-15T01:18:36.000Z,0
2023-04-15T01:19:37.000Z,0
2023-04-15T01:20:37.000Z,0
2023-04-15T01:21:38.000Z,0
2023-04-15T01:22:39.000Z,0
2023-04-15T01:23:40.000Z,0
2023-04-15T01:24:41.000Z,0
2023-04-15T01:25:42.000Z,0
2023-04-15T01:26:43.000Z,0
2023-04-15T01:27:44.000Z,0
2023-04-15T01:28:45.000Z,0
2023-04-15T01:29:46.000Z,0
2023-04-15T01:30:47.000Z,0
2023-04-15T01:31:48.000Z,0
2023-04-15T01:32:49.000Z,0
2023-04-15T01:33:50.000Z,0
2023-04-15T01:34:50.000Z,0
2023-04-15T01:35:51.000Z,0
2023-04-15T01:36:52.000Z,0
2023-04-15T01:37:53.000Z,0
2023-04-15T01:38:54.000Z,0
2023-04-15T01:39:55.000Z,0
2023-04-15T01:40:56.000Z,0
2023-04-15T01:41:57.000Z,0
2023-04-15T01:42:58.000Z,0
2023-04-15T01:43:59.000Z,0
2023-04-15T01:45:00.000Z,0
2023-04-15T01:46:00.000Z,0
2023-04-15T01:47:01.000Z,0
2023-04-15T01:48:02.000Z,0
2023-04-15T01:49:04.000Z,0
2023-04-15T01:50:04.000Z,0
2023-04-15T01:51:05.000Z,0
2023-04-15T01:52:06.000Z,0
2023-04-15T01:53:07.000Z,0
2023-04-15T01:54:08.000Z,0
2023-04-15T01:55:14.000Z,0
2023-04-15T01:56:15.000Z,0
2023-04-15T01:57:15.000Z,0
2023-04-15T01:58:16.000Z,0
2023-04-15T01:59:17.000Z,0
2023-04-15T02:00:18.000Z,0
2023-04-15T02:01:19.000Z,0
2023-04-15T02:02:20.000Z,0
2023-04-15T02:03:21.000Z,0
2023-04-15T02:04:22.000Z,0
2023-04-15T02:05:23.000Z,0
2023-04-15T02:06:24.000Z,0
2023-04-15T02:07:24.000Z,0
2023-04-15T02:08:25.000Z,0
2023-04-15T02:09:26.000Z,0
2023-04-15T02:10:27.000Z,0
2023-04-15T02:11:28.000Z,0
2023-04-15T02:12:29.000Z,0
2023-04-15T02:13:30.000Z,0
2023-04-15T02:14:31.000Z,0
2023-04-15T02:15:32.000Z,0
2023-04-15T02:16:33.000Z,0
2023-04-15T02:17:34.000Z,0
2023-04-15T02:18:35.000Z,0
2023-04-15T02:19:36.000Z,0
2023-04-15T02:20:36.000Z,0
2023-04-15T02:21:37.000Z,0
2023-04-15T02:22:38.000Z,0
2023-04-15T02:23:39.000Z,0
2023-04-15T02:24:40.000Z,0
2023-04-15T02:25:41.000Z,0
2023-04-15T02:26:42.000Z,0
2023-04-15T02:27:43.000Z,0
2023-04-15T02:28:44.000Z,0
2023-04-15T02:29:45.000Z,0
2023-04-15T02:30:46.000Z,0
2023-04-15T02:31:47.000Z,0
2023-04-15T02:32:48.000Z,0
2023-04-15T02:33:48.000Z,0
2023-04-15T02:34:49.000Z,0
2023-04-15T02:35:50.000Z,0
2023-04-15T02:36:51.000Z,0
2023-04-15T02:37:52.000Z,0
2023-04-15T02:38:53.000Z,0
2023-04-15T02:39:54.000Z,0
2023-04-15T02:40:55.000Z,0
2023-04-15T02:41:56.000Z,0
2023-04-15T02:42:57.000Z,0
2023-04-15T02:43:57.000Z,0
2023-04-15T02:44:58.000Z,0
2023-04-15T02:45:59.000Z,0
2023-04-15T02:47:00.000Z,0
2023-04-15T02:48:01.000Z,0
2023-04-15T02:49:02.000Z,0
2023-04-15T02:50:03.000Z,0
2023-04-15T02:51:04.000Z,0
2023-04-15T02:52:04.000Z,0
2023-04-15T02:53:05.000Z,0
2023-04-15T02:54:06.000Z,0
2023-04-15T02:55:07.000Z,0
2023-04-15T02:56:08.000Z,0
2023-04-15T02:57:09.000Z,0
2023-04-15T02:58:10.000Z,0
2023-04-15T02:59:11.000Z,0
2023-04-15T03:00:11.000Z,0
2023-04-15T03:01:12.000Z,0
2023-04-15T03:02:13.000Z,0
2023-04-15T03:03:14.000Z,0
2023-04-15T03:04:15.000Z,0
2023-04-15T03:05:16.000Z,0
2023-04-15T03:06:17.000Z,0
2023-04-15T03:07:17.000Z,0
2023-04-15T03:08:18.000Z,0
2023-04-15T03:09:19.000Z,0
2023-04-15T03:10:20.000Z,0
2023-04-15T03:11:21.000Z,0
2023-04-15T03:12:22.000Z,0
2023-04-15T03:13:23.000Z,0
2023-04-15T03:14:24.000Z,0
2023-04-15T03:15:25.000Z,0
2023-04-15T03:16:26.000Z,0
2023-04-15T03:17:26.000Z,0
2023-04-15T03:18:27.000Z,0
2023-04-15T03:19:28.000Z,0
2023-04-15T03:20:29.000Z,0
2023-04-15T03:21:30.000Z,0
2023-04-15T03:22:31.000Z,0
2023-04-15T03:23:32.000Z,0
2023-04-15T03:24:33.000Z,0
2023-04-15T03:25:34.000Z,0
2023-04-15T03:26:35.000Z,0
2023-04-15T03:27:35.000Z,0
2023-04-15T03:28:36.000Z,0
2023-04-15T03:29:37.000Z,0
2023-04-15T03:30:38.000Z,0
2023-04-15T03:31:39.000Z,0
2023-04-15T03:32:40.000Z,0
2023-04-15T03:33:41.000Z,0
2023-04-15T03:34:42.000Z,0
2023-04-15T03:35:42.000Z,0
2023-04-15T03:36:43.000Z,0
2023-04-15T03:37:44.000Z,0
2023-04-15T03:38:45.000Z,0
2023-04-15T03:39:46.000Z,0
2023-04-15T03:40:47.000Z,0
2023-04-15T03:41:48.000Z,0
2023-04-15T03:42:49.000Z,0
2023-04-15T03:43:49.000Z,0
2023-04-15T03:44:50.000Z,0
2023-04-15T03:45:51.000Z,0
2023-04-15T03:46:52.000Z,1
2023-04-15T03:47:53.000Z,1
2023-04-15T03:48:54.000Z,1
2023-04-15T03:49:55.000Z,0
2023-04-15T03:50:56.000Z,1
2023-04-15T03:52:01.000Z,2
2023-04-15T03:53:02.000Z,2
2023-04-15T03:54:03.000Z,2
2023-04-15T03:55:04.000Z,3
2023-04-15T03:56:05.000Z,3
2023-04-15T03:57:06.000Z,4
2023-04-15T03:58:07.000Z,6
2023-04-15T03:59:07.000Z,6
2023-04-15T04:00:08.000Z,7
2023-04-15T04:01:09.000Z,9
2023-04-15T04:02:10.000Z,9
2023-04-15T04:03:11.000Z,10
2023-04-15T04:04:12.000Z,12
2023-04-15T04:05:13.000Z,13
2023-04-15T04:06:14.000Z,15
2023-04-15T04:07:14.000Z,18
2023-04-15T04:08:15.000Z,21
2023-04-15T04:09:16.000Z,22
2023-04-15T04:10:17.000Z,28
2023-04-15T04:11:18.000Z,34
2023-04-15T04:12:19.000Z,41
2023-04-15T04:13:20.000Z,49
2023-04-15T04:14:21.000Z,64
2023-04-15T04:15:21.000Z,71
2023-04-15T04:16:22.000Z,89
2023-04-15T04:17:23.000Z,97
2023-04-15T04:18:24.000Z,100
2023-04-15T04:19:25.000Z,106
2023-04-15T04:20:26.000Z,108
2023-04-15T04:21:27.000Z,99
2023-04-15T04:22:28.000Z,107
2023-04-15T04:23:28.000Z,107
2023-04-15T04:24:29.000Z,108
2023-04-15T04:25:30.000Z,108
2023-04-15T04:26:31.000Z,110
2023-04-15T04:27:32.000Z,110
2023-04-15T04:28:33.000Z,120
2023-04-15T04:29:34.000Z,124
2023-04-15T04:30:35.000Z,122
2023-04-15T04:31:35.000Z,130
2023-04-15T04:32:36.000Z,135
2023-04-15T04:33:37.000Z,137
2023-04-15T04:34:38.000Z,152
2023-04-15T04:35:39.000Z,180
2023-04-15T04:36:40.000Z,167
2023-04-15T04:37:41.000Z,167
2023-04-15T04:38:42.000Z,173
2023-04-15T04:39:43.000Z,179
2023-04-15T04:40:44.000Z,187
2023-04-15T04:41:45.000Z,181
2023-04-15T04:42:45.000Z,193
2023-04-15T04:43:46.000Z,205
2023-04-15T04:44:47.000Z,219
2023-04-15T04:45:48.000Z,228
2023-04-15T04:46:49.000Z,242
2023-04-15T04:47:50.000Z,267
2023-04-15T04:48:51.000Z,273
2023-04-15T04:49:51.000Z,302
2023-04-15T04:50:52.000Z,322
2023-04-15T04:51:53.000Z,349
2023-04-15T04:52:54.000Z,376
2023-04-15T04:53:55.000Z,381
2023-04-15T04:54:56.000Z,394
2023-04-15T04:55:57.000Z,456
2023-04-15T04:56:57.000Z,521
2023-04-15T04:57:58.000Z,561
2023-04-15T04:58:59.000Z,635
2023-04-15T05:00:00.000Z,684
2023-04-15T05:01:01.000Z,751
2023-04-15T05:02:02.000Z,818
2023-04-15T05:03:03.000Z,819
2023-04-15T05:04:04.000Z,835
2023-04-15T05:05:04.000Z,886
2023-04-15T05:06:05.000Z,932
2023-04-15T05:07:06.000Z,938
2023-04-15T05:08:07.000Z,1011
2023-04-15T05:09:08.000Z,1022
2023-04-15T05:10:09.000Z,1041
2023-04-15T05:11:10.000Z,1046
2023-04-15T05:12:11.000Z,1108
2023-04-15T05:13:12.000Z,1120
2023-04-15T05:14:12.000Z,1188
2023-04-15T05:15:13.000Z,1139
2023-04-15T05:16:14.000Z,1147
2023-04-15T05:17:15.000Z,1147
2023-04-15T05:18:16.000Z,1098
2023-04-15T05:19:22.000Z,1081
2023-04-15T05:20:23.000Z,1104
2023-04-15T05:21:24.000Z,1055
2023-04-15T05:22:25.000Z,1038
2023-04-15T05:23:25.000Z,1034
2023-04-15T05:24:26.000Z,1031
2023-04-15T05:25:28.000Z,992
2023-04-15T05:26:28.000Z,1106
2023-04-15T05:27:29.000Z,1071
2023-04-15T05:28:30.000Z,1102
2023-04-15T05:29:31.000Z,1098
2023-04-15T05:30:32.000Z,1051
2023-04-15T05:31:33.000Z,1069
2023-04-15T05:32:34.000Z,1094
2023-04-15T05:33:35.000Z,1147
2023-04-15T05:34:36.000Z,1182
2023-04-15T05:35:36.000Z,1171
2023-04-15T05:36:37.000Z,1346
2023-04-15T05:37:44.000Z,1354
2023-04-15T05:38:50.000Z,1430
2023-04-15T05:39:51.000Z,1412
2023-04-15T05:40:52.000Z,1499
2023-04-15T05:41:53.000Z,1431
2023-04-15T05:42:54.000Z,1342
2023-04-15T05:43:55.000Z,1245
2023-04-15T05:44:55.000Z,1200
2023-04-15T05:45:56.000Z,1218
2023-04-15T05:46:57.000Z,1190
2023-04-15T05:47:58.000Z,1147
2023-04-15T05:48:59.000Z,1137
2023-04-15T05:50:00.000Z,1257
2023-04-15T05:51:01.000Z,1180
2023-04-15T05:52:01.000Z,1170
2023-04-15T05:53:02.000Z,1186
2023-04-15T05:54:03.000Z,1257
2023-04-15T05:55:09.000Z,1294
2023-04-15T05:56:10.000Z,1379
2023-04-15T05:57:11.000Z,1428
2023-04-15T05:58:12.000Z,1577
2023-04-15T05:59:12.000Z,1649
2023-04-15T06:00:13.000Z,1666
2023-04-15T06:01:14.000Z,1835
2023-04-15T06:02:15.000Z,1872
2023-04-15T06:03:16.000Z,1851
2023-04-15T06:04:17.000Z,1942
2023-04-15T06:05:17.000Z,1972
2023-04-15T06:06:18.000Z,1842
2023-04-15T06:07:19.000Z,1617
2023-04-15T06:08:20.000Z,1499
2023-04-15T06:09:21.000Z,1411
2023-04-15T06:10:22.000Z,1471
2023-04-15T06:11:23.000Z,1388
2023-04-15T06:12:24.000Z,1324
2023-04-15T06:13:24.000Z,1413
2023-04-15T06:14:25.000Z,1419
2023-04-15T06:15:26.000Z,1492
2023-04-15T06:16:27.000Z,1379
2023-04-15T06:17:28.000Z,1426
2023-04-15T06:18:29.000Z,1596
2023-04-15T06:19:30.000Z,1683
2023-04-15T06:20:31.000Z,1862
2023-04-15T06:21:32.000Z,1821
2023-04-15T06:22:32.000Z,1862
2023-04-15T06:23:33.000Z,1955
2023-04-15T06:24:34.000Z,2028
2023-04-15T06:25:35.000Z,2102
2023-04-15T06:26:36.000Z,2125
2023-04-15T06:27:37.000Z,2336
2023-04-15T06:28:38.000Z,2452
2023-04-15T06:29:39.000Z,2708
2023-04-15T06:30:40.000Z,2929
2023-04-15T06:31:40.000Z,2940
2023-04-15T06:32:41.000Z,2897
2023-04-15T06:33:42.000Z,3133
2023-04-15T06:34:43.000Z,2884
2023-04-15T06:35:44.000Z,3005
2023-04-15T06:36:45.000Z,2644
2023-04-15T06:37:46.000Z,2481
2023-04-15T06:38:47.000Z,2460
2023-04-15T06:39:48.000Z,2287
2023-04-15T06:40:49.000Z,2074
2023-04-15T06:41:50.000Z,1912
2023-04-15T06:42:51.000Z,1752
2023-04-15T06:43:51.000Z,1607
2023-04-15T06:44:52.000Z,1648
2023-04-15T06:45:53.000Z,1697
2023-04-15T06:46:54.000Z,1739
2023-04-15T06:47:55.000Z,1732
2023-04-15T06:48:56.000Z,1547
2023-04-15T06:49:57.000Z,1411
2023-04-15T06:50:58.000Z,1294
2023-04-15T06:51:59.000Z,1292
2023-04-15T06:53:00.000Z,1242
2023-04-15T06:54:01.000Z,1218
2023-04-15T06:55:02.000Z,1408
2023-04-15T06:56:03.000Z,1579
2023-04-15T06:57:03.000Z,1745
2023-04-15T06:58:04.000Z,1886
2023-04-15T06:59:05.000Z,2015
2023-04-15T07:00:06.000Z,1847
2023-04-15T07:01:07.000Z,1747
2023-04-15T07:02:08.000Z,1639
2023-04-15T07:03:09.000Z,1478
2023-04-15T07:04:10.000Z,1407
2023-04-15T07:05:10.000Z,1365
2023-04-15T07:06:11.000Z,1519
2023-04-15T07:07:12.000Z,1942
2023-04-15T07:08:13.000Z,2903
2023-04-15T07:09:14.000Z,3964
2023-04-15T07:10:15.000Z,4629
2023-04-15T07:11:16.000Z,4770
2023-04-15T07:12:17.000Z,4720
2023-04-15T07:13:18.000Z,5061
2023-04-15T07:14:19.000Z,5626
2023-04-15T07:15:19.000Z,5831
2023-04-15T07:16:20.000Z,4791
2023-04-15T07:17:21.000Z,4201
2023-04-15T07:18:22.000Z,4736
2023-04-15T07:19:23.000Z,4686
2023-04-15T07:20:24.000Z,3911
2023-04-15T07:21:25.000Z,4077
2023-04-15T07:22:26.000Z,4716
2023-04-15T07:23:27.000Z,5423
2023-04-15T07:24:27.000Z,5234
2023-04-15T07:25:28.000Z,4043
2023-04-15T07:26:29.000Z,3272
2023-04-15T07:27:30.000Z,2808
2023-04-15T07:28:31.000Z,2545
2023-04-15T07:29:32.000Z,2523
2023-04-15T07:30:33.000Z,2539
2023-04-15T07:31:33.000Z,2928
2023-04-15T07:32:34.000Z,2984
2023-04-15T07:33:35.000Z,3018
2023-04-15T07:34:36.000Z,3082
2023-04-15T07:35:37.000Z,3149
2023-04-15T07:36:38.000Z,3076
2023-04-15T07:37:39.000Z,3024
2023-04-15T07:38:40.000Z,2952
2023-04-15T07:39:41.000Z,2963
2023-04-15T07:40:42.000Z,2797
2023-04-15T07:41:43.000Z,2676
2023-04-15T07:42:44.000Z,2641
2023-04-15T07:43:44.000Z,2654
2023-04-15T07:44:45.000Z,2599
2023-04-15T07:45:46.000Z,2619
2023-04-15T07:46:47.000Z,2556
2023-04-15T07:47:48.000Z,2566
2023-04-15T07:48:49.000Z,2485
2023-04-15T07:49:50.000Z,2487
2023-04-15T07:50:51.000Z,2550
2023-04-15T07:51:52.000Z,2649
2023-04-15T07:52:52.000Z,2952
2023-04-15T07:53:53.000Z,3490
2023-04-15T07:54:54.000Z,3755
2023-04-15T07:55:55.000Z,4511
2023-04-15T07:56:56.000Z,5112
2023-04-15T07:57:57.000Z,4526
2023-04-15T07:58:58.000Z,3798
2023-04-15T07:59:59.000Z,3713
2023-04-15T08:00:59.000Z,3886
2023-04-15T08:02:00.000Z,4001
2023-04-15T08:03:01.000Z,4322
2023-04-15T08:04:02.000Z,4444
2023-04-15T08:05:03.000Z,4546
2023-04-15T08:06:04.000Z,4846
2023-04-15T08:07:05.000Z,4770
2023-04-15T08:08:05.000Z,4424
2023-04-15T08:09:07.000Z,4372
2023-04-15T08:10:08.000Z,4936
2023-04-15T08:11:13.000Z,5316
2023-04-15T08:12:14.000Z,6141
2023-04-15T08:13:15.000Z,6831
2023-04-15T08:14:16.000Z,7212
2023-04-15T08:15:18.000Z,7087
2023-04-15T08:16:19.000Z,6112
2023-04-15T08:17:20.000Z,5819
2023-04-15T08:18:21.000Z,6176
2023-04-15T08:19:21.000Z,6736
2023-04-15T08:20:22.000Z,6958
2023-04-15T08:21:23.000Z,7341
2023-04-15T08:22:24.000Z,7807
2023-04-15T08:23:25.000Z,7937
2023-04-15T08:24:26.000Z,8071
2023-04-15T08:25:27.000Z,7806
2023-04-15T08:26:28.000Z,7422
2023-04-15T08:27:28.000Z,6975
2023-04-15T08:28:29.000Z,7152
2023-04-15T08:29:30.000Z,6723
2023-04-15T08:30:31.000Z,6751
2023-04-15T08:31:32.000Z,7053
2023-04-15T08:32:33.000Z,7404
2023-04-15T08:33:34.000Z,7526
2023-04-15T08:34:35.000Z,7476
2023-04-15T08:35:36.000Z,7733
2023-04-15T08:36:37.000Z,7956
2023-04-15T08:37:38.000Z,7720
2023-04-15T08:38:39.000Z,8421
2023-04-15T08:39:39.000Z,7366
2023-04-15T08:40:40.000Z,6492
2023-04-15T08:41:41.000Z,5895
2023-04-15T08:42:42.000Z,6832
2023-04-15T08:43:43.000Z,6066
2023-04-15T08:44:45.000Z,6066
2023-04-15T08:45:46.000Z,6069
2023-04-15T08:46:47.000Z,5831
2023-04-15T08:47:48.000Z,5509
2023-04-15T08:48:49.000Z,5655
2023-04-15T08:49:50.000Z,5553
2023-04-15T08:50:51.000Z,5330
2023-04-15T08:51:51.000Z,4979
2023-04-15T08:52:52.000Z,4971
2023-04-15T08:53:53.000Z,4929
2023-04-15T08:54:54.000Z,4957
2023-04-15T08:55:55.000Z,4715
2023-04-15T08:56:56.000Z,4773
2023-04-15T08:57:57.000Z,4891
2023-04-15T08:58:58.000Z,5053
2023-04-15T08:59:59.000Z,4894
2023-04-15T09:01:00.000Z,4715
2023-04-15T09:02:01.000Z,4694
2023-04-15T09:03:02.000Z,4794
2023-04-15T09:04:03.000Z,4989
2023-04-15T09:05:04.000Z,5135
2023-04-15T09:06:05.000Z,5376
2023-04-15T09:07:06.000Z,5352
2023-04-15T09:08:12.000Z,5422
2023-04-15T09:09:12.000Z,5728
2023-04-15T09:10:13.000Z,6584
2023-04-15T09:11:14.000Z,8225
2023-04-15T09:12:15.000Z,9196
2023-04-15T09:13:16.000Z,8727
2023-04-15T09:14:17.000Z,7543
2023-04-15T09:15:18.000Z,7612
2023-04-15T09:16:19.000Z,7492
2023-04-15T09:17:20.000Z,7425
2023-04-15T09:18:21.000Z,6419
2023-04-15T09:19:22.000Z,5790
2023-04-15T09:20:23.000Z,5612
2023-04-15T09:21:24.000Z,6222
2023-04-15T09:22:25.000Z,7017
2023-04-15T09:23:26.000Z,8314
2023-04-15T09:24:26.000Z,9219
2023-04-15T09:25:27.000Z,8945
2023-04-15T09:26:28.000Z,8217
2023-04-15T09:27:29.000Z,8180
2023-04-15T09:28:30.000Z,7750
2023-04-15T09:29:31.000Z,7448
2023-04-15T09:30:32.000Z,7638
2023-04-15T09:31:33.000Z,7413
2023-04-15T09:32:34.000Z,7143
2023-04-15T09:33:35.000Z,6796
2023-04-15T09:34:35.000Z,6818
2023-04-15T09:35:36.000Z,7287
2023-04-15T09:36:37.000Z,7830
2023-04-15T09:37:38.000Z,8984
2023-04-15T09:38:39.000Z,9391
2023-04-15T09:39:40.000Z,9694
2023-04-15T09:40:45.000Z,10136
2023-04-15T09:41:47.000Z,10140
2023-04-15T09:42:47.000Z,11025
2023-04-15T09:43:48.000Z,11341
2023-04-15T09:44:49.000Z,11916
2023-04-15T09:45:50.000Z,12786
2023-04-15T09:46:51.000Z,13516
2023-04-15T09:47:52.000Z,13521
2023-04-15T09:48:53.000Z,13872
2023-04-15T09:49:53.000Z,14127
2023-04-15T09:50:54.000Z,13854
2023-04-15T09:51:55.000Z,14148
2023-04-15T09:52:56.000Z,14205
2023-04-15T09:53:57.000Z,14119
2023-04-15T09:54:58.000Z,13390
2023-04-15T09:55:59.000Z,12593
2023-04-15T09:57:00.000Z,11810
2023-04-15T09:58:00.000Z,11788
2023-04-15T09:59:02.000Z,11062
2023-04-15T10:00:03.000Z,10313
2023-04-15T10:01:04.000Z,9495
2023-04-15T10:02:05.000Z,9932
2023-04-15T10:03:06.000Z,8658
2023-04-15T10:04:07.000Z,7901
2023-04-15T10:05:07.000Z,7427
2023-04-15T10:06:08.000Z,6733
2023-04-15T10:07:09.000Z,6632
2023-04-15T10:08:10.000Z,6628
2023-04-15T10:09:11.000Z,6470
2023-04-15T10:10:12.000Z,6071
2023-04-15T10:11:13.000Z,5935
2023-04-15T10:12:14.000Z,5975
2023-04-15T10:13:14.000Z,5907
2023-04-15T10:14:15.000Z,5835
2023-04-15T10:15:16.000Z,5249
2023-04-15T10:16:17.000Z,5319
2023-04-15T10:17:18.000Z,5218
2023-04-15T10:18:19.000Z,5102
2023-04-15T10:19:20.000Z,4915
2023-04-15T10:20:21.000Z,4826
2023-04-15T10:21:22.000Z,4639
2023-04-15T10:22:22.000Z,4689
2023-04-15T10:23:23.000Z,4893
2023-04-15T10:24:24.000Z,5047
2023-04-15T10:25:25.000Z,5002
2023-04-15T10:26:26.000Z,4951
2023-04-15T10:27:27.000Z,4818
2023-04-15T10:28:28.000Z,4688
2023-04-15T10:29:29.000Z,4465
2023-04-15T10:30:29.000Z,4545
2023-04-15T10:31:30.000Z,4609
2023-04-15T10:32:31.000Z,4892
2023-04-15T10:33:32.000Z,5464
2023-04-15T10:34:33.000Z,5506
2023-04-15T10:35:34.000Z,5735
2023-04-15T10:36:35.000Z,5879
2023-04-15T10:37:36.000Z,5708
2023-04-15T10:38:36.000Z,5401
2023-04-15T10:39:37.000Z,5212
2023-04-15T10:40:38.000Z,5065
2023-04-15T10:41:39.000Z,5078
2023-04-15T10:42:40.000Z,5042
2023-04-15T10:43:41.000Z,4860
2023-04-15T10:44:42.000Z,4306
2023-04-15T10:45:48.000Z,4032
2023-04-15T10:46:48.000Z,3850
2023-04-15T10:47:49.000Z,3902
2023-04-15T10:48:50.000Z,3890
2023-04-15T10:49:51.000Z,3974
2023-04-15T10:50:52.000Z,3998
2023-04-15T10:51:53.000Z,3876
2023-04-15T10:52:54.000Z,4126
2023-04-15T10:53:55.000Z,4410
2023-04-15T10:54:56.000Z,4818
2023-04-15T10:55:56.000Z,5072
2023-04-15T10:56:57.000Z,5388
2023-04-15T10:57:58.000Z,5496
2023-04-15T10:58:59.000Z,5408
2023-04-15T11:00:00.000Z,4940
2023-04-15T11:01:01.000Z,4866
2023-04-15T11:02:02.000Z,4674
2023-04-15T11:03:03.000Z,4918
2023-04-15T11:04:03.000Z,5494
2023-04-15T11:05:04.000Z,5901
2023-04-15T11:06:05.000Z,5723
2023-04-15T11:07:06.000Z,5605
2023-04-15T11:08:07.000Z,6506
2023-04-15T11:09:08.000Z,7625
2023-04-15T11:10:09.000Z,8305
2023-04-15T11:11:09.000Z,7540
2023-04-15T11:12:10.000Z,6946
2023-04-15T11:13:11.000Z,7710
2023-04-15T11:14:13.000Z,9577
2023-04-15T11:15:14.000Z,11836
2023-04-15T11:16:15.000Z,12351
2023-04-15T11:17:15.000Z,11807
2023-04-15T11:18:16.000Z,12270
2023-04-15T11:19:17.000Z,11126
2023-04-15T11:20:18.000Z,10270
2023-04-15T11:21:19.000Z,9232
2023-04-15T11:22:20.000Z,9149
2023-04-15T11:23:20.000Z,9367
2023-04-15T11:24:21.000Z,9120
2023-04-15T11:25:22.000Z,8910
2023-04-15T11:26:23.000Z,8804
2023-04-15T11:27:24.000Z,9780
2023-04-15T11:28:25.000Z,11876
2023-04-15T11:29:25.000Z,12405
2023-04-15T11:30:26.000Z,11803
2023-04-15T11:31:27.000Z,10256
2023-04-15T11:32:28.000Z,9974
2023-04-15T11:33:29.000Z,10015
2023-04-15T11:34:30.000Z,11088
2023-04-15T11:35:31.000Z,12365
2023-04-15T11:36:32.000Z,13343
2023-04-15T11:37:32.000Z,13912
2023-04-15T11:38:33.000Z,13692
2023-04-15T11:39:34.000Z,13819
2023-04-15T11:40:35.000Z,14615
2023-04-15T11:41:36.000Z,13422
2023-04-15T11:42:37.000Z,12964
2023-04-15T11:43:38.000Z,12221
2023-04-15T11:44:38.000Z,11453
2023-04-15T11:45:39.000Z,11007
2023-04-15T11:46:40.000Z,10461
2023-04-15T11:47:41.000Z,9668
2023-04-15T11:48:42.000Z,8644
2023-04-15T11:49:43.000Z,8857
2023-04-15T11:50:44.000Z,7947
2023-04-15T11:51:45.000Z,8058
2023-04-15T11:52:45.000Z,7978
2023-04-15T11:53:46.000Z,7610
2023-04-15T11:54:47.000Z,6732
2023-04-15T11:55:48.000Z,6176
2023-04-15T11:56:49.000Z,6154
2023-04-15T11:57:50.000Z,6133
2023-04-15T11:58:51.000Z,6558
2023-04-15T11:59:51.000Z,7776
2023-04-15T12:00:52.000Z,8452
2023-04-15T12:01:53.000Z,8976
2023-04-15T12:02:54.000Z,8527
2023-04-15T12:03:55.000Z,7536
2023-04-15T12:04:56.000Z,6668
2023-04-15T12:05:57.000Z,6375
2023-04-15T12:06:58.000Z,6739
2023-04-15T12:07:59.000Z,7144
2023-04-15T12:09:00.000Z,6034
2023-04-15T12:10:00.000Z,5818
2023-04-15T12:11:01.000Z,5541
2023-04-15T12:12:02.000Z,5916
2023-04-15T12:13:03.000Z,7418
2023-04-15T12:14:04.000Z,9308
2023-04-15T12:15:05.000Z,9884
2023-04-15T12:16:06.000Z,7727
2023-04-15T12:17:07.000Z,6834
2023-04-15T12:18:07.000Z,7356
2023-04-15T12:19:08.000Z,8547
2023-04-15T12:20:09.000Z,9270
2023-04-15T12:21:10.000Z,7193
2023-04-15T12:22:11.000Z,6890
2023-04-15T12:23:12.000Z,7168
2023-04-15T12:24:13.000Z,7476
2023-04-15T12:25:14.000Z,9181
2023-04-15T12:26:14.000Z,10345
2023-04-15T12:27:15.000Z,12729
2023-04-15T12:28:16.000Z,14473
2023-04-15T12:29:17.000Z,14798
2023-04-15T12:30:18.000Z,14517
2023-04-15T12:31:19.000Z,15688
2023-04-15T12:32:20.000Z,15055
2023-04-15T12:33:21.000Z,12083
2023-04-15T12:34:22.000Z,12258
2023-04-15T12:35:22.000Z,13431
2023-04-15T12:36:23.000Z,13201
2023-04-15T12:37:24.000Z,11811
2023-04-15T12:38:25.000Z,12885
2023-04-15T12:39:26.000Z,11786
2023-04-15T12:40:27.000Z,11500
2023-04-15T12:41:28.000Z,12604
2023-04-15T12:42:29.000Z,12381
2023-04-15T12:43:29.000Z,12917
2023-04-15T12:44:30.000Z,13125
2023-04-15T12:45:31.000Z,15093
2023-04-15T12:46:32.000Z,17008
2023-04-15T12:47:33.000Z,18304
2023-04-15T12:48:34.000Z,16384
2023-04-15T12:49:34.000Z,17376
2023-04-15T12:50:35.000Z,20896
2023-04-15T12:51:36.000Z,21344
2023-04-15T12:52:37.000Z,18208
2023-04-15T12:53:38.000Z,18248
2023-04-15T12:54:39.000Z,19984
2023-04-15T12:55:40.000Z,19584
2023-04-15T12:56:41.000Z,17688
2023-04-15T12:57:42.000Z,16728
2023-04-15T12:58:42.000Z,17648
2023-04-15T12:59:43.000Z,15993
2023-04-15T13:00:44.000Z,15144
2023-04-15T13:01:45.000Z,19432
2023-04-15T13:02:46.000Z,19488
2023-04-15T13:03:47.000Z,16800
2023-04-15T13:04:48.000Z,16816
2023-04-15T13:05:49.000Z,18656
2023-04-15T13:06:50.000Z,18088
2023-04-15T13:07:50.000Z,13007
2023-04-15T13:08:51.000Z,12290
2023-04-15T13:09:52.000Z,15611
2023-04-15T13:10:53.000Z,17296
2023-04-15T13:11:54.000Z,17848
2023-04-15T13:12:55.000Z,18296
2023-04-15T13:13:55.000Z,20336
2023-04-15T13:14:56.000Z,20816
2023-04-15T13:15:57.000Z,21656
2023-04-15T13:16:59.000Z,22568
2023-04-15T13:18:00.000Z,23368
2023-04-15T13:19:01.000Z,20864
2023-04-15T13:20:02.000Z,22168
2023-04-15T13:21:03.000Z,23008
2023-04-15T13:22:03.000Z,20944
2023-04-15T13:23:04.000Z,21416
2023-04-15T13:24:05.000Z,23296
2023-04-15T13:25:06.000Z,21048
2023-04-15T13:26:07.000Z,21104
2023-04-15T13:27:08.000Z,24056
2023-04-15T13:28:09.000Z,25688
2023-04-15T13:29:10.000Z,21200
2023-04-15T13:30:11.000Z,18808
2023-04-15T13:31:12.000Z,16640
2023-04-15T13:32:13.000Z,17144
2023-04-15T13:33:14.000Z,17016
2023-04-15T13:34:15.000Z,17208
2023-04-15T13:35:16.000Z,17440
2023-04-15T13:36:16.000Z,20384
2023-04-15T13:37:17.000Z,21360
2023-04-15T13:38:18.000Z,15835
2023-04-15T13:39:19.000Z,13251
2023-04-15T13:40:20.000Z,11926
2023-04-15T13:41:21.000Z,14340
2023-04-15T13:42:22.000Z,16552
2023-04-15T13:43:22.000Z,14421
2023-04-15T13:44:23.000Z,14524
2023-04-15T13:45:24.000Z,14346
2023-04-15T13:46:25.000Z,13914
2023-04-15T13:47:26.000Z,13529
2023-04-15T13:48:27.000Z,12316
2023-04-15T13:49:27.000Z,10802
2023-04-15T13:50:28.000Z,7822
2023-04-15T13:51:29.000Z,5545
2023-04-15T13:52:30.000Z,4204
2023-04-15T13:53:31.000Z,3258